createdAt,value
2019-04-20T00:02:27.494Z,7.32
2019-04-20T00:05:01.176Z,7.66
2019-04-20T00:07:36.370Z,7.81
2019-04-20T00:10:15.065Z,7.47
2019-04-20T00:13:01.015Z,7.29
2019-04-20T00:15:18.106Z,7.28
2019-04-20T00:17:56.150Z,7.28
2019-04-20T00:20:29.664Z,7.40
2019-04-20T00:23:22.663Z,7.54
2019-04-20T00:26:26.799Z,7.42
2019-04-20T00:29:06.987Z,7.20
2019-04-20T00:31:42.023Z,7.04
2019-04-20T00:34:08.972Z,7.06
2019-04-20T00:36:34.890Z,7.00
2019-04-20T00:39:12.838Z,6.97
2019-04-20T00:41:51.743Z,7.09
2019-04-20T00:44:25.149Z,6.90
2019-04-20T00:47:04.899Z,6.55
2019-04-20T00:49:47.278Z,6.22
2019-04-20T00:52:30.742Z,6.09
2019-04-20T00:54:37.428Z,6.25
2019-04-20T00:57:21.755Z,6.42
2019-04-20T01:00:06.178Z,6.42
2019-04-20T01:02:33.287Z,6.62
2019-04-20T01:05:11.117Z,6.42
2019-04-20T01:07:52.029Z,6.27
2019-04-20T01:10:21.605Z,6.03
2019-04-20T01:13:04.356Z,5.97
2019-04-20T01:15:38.797Z,5.89
2019-04-20T01:18:03.812Z,5.72
2019-04-20T01:20:38.942Z,5.66
2019-04-20T01:23:16.010Z,5.76
2019-04-20T01:25:51.991Z,5.74
2019-04-20T01:28:37.464Z,5.83
2019-04-20T01:31:09.218Z,5.91
2019-04-20T01:33:42.452Z,6.01
2019-04-20T01:36:26.586Z,5.91
2019-04-20T01:38:55.354Z,5.85
2019-04-20T01:41:14.316Z,5.99
2019-04-20T01:43:48.099Z,6.00
2019-04-20T01:46:23.982Z,6.07
2019-04-20T01:49:00.000Z,6.24
2019-04-20T01:51:44.106Z,6.01
2019-04-20T01:54:24.519Z,5.81
2019-04-20T01:56:54.904Z,5.73
2019-04-20T01:59:40.279Z,5.70
2019-04-20T02:02:35.529Z,5.65
2019-04-20T02:05:16.604Z,5.67
2019-04-20T02:07:51.054Z,5.64
2019-04-20T02:10:33.247Z,5.62
2019-04-20T02:13:00.175Z,5.55
2019-04-20T02:15:38.626Z,5.54
2019-04-20T02:18:20.526Z,5.67
2019-04-20T02:20:59.847Z,5.71
2019-04-20T02:23:29.579Z,5.47
2019-04-20T02:25:50.143Z,5.33
2019-04-20T02:28:56.598Z,5.30
2019-04-20T02:34:23.991Z,5.30
2019-04-20T02:39:37.566Z,5.01
2019-04-20T02:44:52.456Z,5.10
2019-04-20T02:47:21.705Z,5.18
2019-04-20T02:49:50.939Z,5.28
2019-04-20T02:52:33.500Z,5.21
2019-04-20T02:55:04.132Z,4.72
2019-04-20T02:57:44.306Z,4.99
2019-04-20T03:02:27.237Z,4.65
2019-04-20T03:05:00.208Z,4.65
2019-04-20T03:07:34.456Z,4.54
2019-04-20T03:10:14.079Z,4.78
2019-04-20T03:12:53.706Z,4.80
2019-04-20T03:15:30.298Z,4.95
2019-04-20T03:18:03.549Z,4.88
2019-04-20T03:20:41.822Z,4.56
2019-04-20T03:23:26.109Z,4.61
2019-04-20T03:26:12.762Z,4.79
2019-04-20T03:29:03.906Z,4.62
2019-04-20T03:32:33.051Z,4.33
2019-04-20T03:34:47.541Z,4.72
2019-04-20T03:37:04.408Z,4.52
2019-04-20T03:39:28.692Z,4.29
2019-04-20T03:41:49.316Z,4.60
2019-04-20T03:44:24.396Z,4.24
2019-04-20T03:46:59.708Z,4.41
2019-04-20T03:49:54.804Z,4.21
2019-04-20T03:52:32.831Z,4.12
2019-04-20T03:55:35.655Z,4.04
2019-04-20T03:58:28.505Z,4.07
2019-04-20T04:01:22.801Z,4.04
2019-04-20T04:04:05.259Z,4.13
2019-04-20T04:06:26.481Z,4.06
2019-04-20T04:09:02.411Z,4.17
2019-04-20T04:11:44.486Z,4.13
2019-04-20T04:14:00.852Z,4.21
2019-04-20T04:16:41.843Z,4.36
2019-04-20T04:19:16.409Z,4.51
2019-04-20T04:22:00.794Z,4.31
2019-04-20T04:24:30.511Z,4.06
2019-04-20T04:27:05.695Z,3.93
2019-04-20T04:29:47.138Z,4.02
2019-04-20T04:32:37.540Z,4.24
2019-04-20T04:34:57.245Z,4.01
2019-04-20T04:37:35.482Z,3.95
2019-04-20T04:40:14.840Z,4.02
2019-04-20T04:42:45.502Z,4.01
2019-04-20T04:45:01.610Z,4.06
2019-04-20T04:47:30.439Z,4.19
2019-04-20T04:50:10.769Z,4.19
2019-04-20T04:52:45.390Z,4.26
2019-04-20T04:55:28.605Z,3.93
2019-04-20T04:57:47.386Z,4.08
2019-04-20T05:00:26.207Z,4.19
2019-04-20T05:03:02.006Z,3.98
2019-04-20T05:06:24.463Z,3.99
2019-04-20T05:08:47.361Z,4.08
2019-04-20T05:11:17.931Z,4.18
2019-04-20T05:13:59.694Z,4.05
2019-04-20T05:16:45.129Z,4.22
2019-04-20T05:19:26.070Z,4.18
2019-04-20T05:22:17.802Z,4.34
2019-04-20T05:25:12.889Z,4.46
2019-04-20T05:27:52.539Z,4.49
2019-04-20T05:30:09.835Z,4.42
2019-04-20T05:32:52.470Z,4.49
2019-04-20T05:35:36.447Z,4.63
2019-04-20T05:38:12.123Z,4.80
2019-04-20T05:40:49.000Z,5.01
2019-04-20T05:43:27.574Z,5.33
2019-04-20T05:45:58.682Z,5.56
2019-04-20T05:48:44.214Z,5.89
2019-04-20T05:51:12.141Z,6.12
2019-04-20T05:53:45.465Z,6.12
2019-04-20T05:56:26.715Z,6.23
2019-04-20T05:58:57.950Z,6.37
2019-04-20T06:01:31.804Z,6.54
2019-04-20T06:04:01.610Z,6.73
2019-04-20T06:06:45.112Z,7.00
2019-04-20T06:09:20.979Z,7.30
2019-04-20T06:12:02.952Z,7.63
2019-04-20T06:14:40.036Z,7.88
2019-04-20T06:17:49.298Z,8.06
2019-04-20T06:20:26.887Z,8.28
2019-04-20T06:23:09.412Z,8.56
2019-04-20T06:28:48.890Z,9.18
2019-04-20T06:31:30.110Z,9.49
2019-04-20T06:40:30.694Z,10.20
2019-04-20T06:45:44.442Z,10.96
2019-04-20T06:48:22.125Z,11.13
2019-04-20T06:50:44.754Z,11.34
2019-04-20T06:53:46.579Z,11.64
2019-04-20T06:56:27.676Z,11.57
2019-04-20T06:59:00.080Z,11.78
2019-04-20T07:01:37.238Z,12.01
2019-04-20T07:04:27.815Z,12.39
2019-04-20T07:09:22.015Z,12.99
2019-04-20T07:11:50.615Z,13.02
2019-04-20T07:14:08.345Z,13.45
2019-04-20T07:17:31.697Z,13.86
2019-04-20T07:19:58.882Z,14.24
2019-04-20T07:25:07.644Z,14.66
2019-04-20T07:27:50.828Z,14.42
2019-04-20T07:30:19.066Z,15.36
2019-04-20T07:33:18.658Z,16.03
2019-04-20T07:35:30.484Z,16.04
2019-04-20T07:38:25.576Z,17.35
2019-04-20T07:40:38.301Z,17.50
2019-04-20T07:43:07.903Z,18.36
2019-04-20T07:45:49.085Z,18.73
2019-04-20T07:48:21.205Z,19.47
2019-04-20T07:50:53.372Z,19.68
2019-04-20T07:53:30.274Z,19.56
2019-04-20T07:56:17.637Z,20.22
2019-04-20T07:58:30.491Z,20.20
2019-04-20T08:01:31.705Z,20.08
2019-04-20T08:04:04.041Z,20.13
2019-04-20T08:06:26.392Z,20.93
2019-04-20T08:09:10.637Z,20.74
2019-04-20T08:11:55.188Z,20.75
2019-04-20T08:14:28.583Z,19.92
2019-04-20T08:19:33.522Z,21.61
2019-04-20T08:22:09.518Z,21.81
2019-04-20T08:24:37.390Z,21.14
2019-04-20T08:27:07.616Z,21.78
2019-04-20T08:29:54.282Z,21.65
2019-04-20T08:32:38.999Z,21.74
2019-04-20T08:35:23.136Z,21.44
2019-04-20T08:38:00.864Z,21.27
2019-04-20T08:40:25.455Z,21.72
2019-04-20T08:43:16.866Z,22.32
2019-04-20T08:45:42.031Z,22.74
2019-04-20T08:48:18.943Z,21.94
2019-04-20T08:50:45.303Z,23.02
2019-04-20T08:53:27.563Z,23.11
2019-04-20T08:55:49.154Z,23.41
2019-04-20T08:58:11.423Z,22.51
2019-04-20T09:00:51.513Z,23.38
2019-04-20T09:03:25.378Z,22.54
2019-04-20T09:06:03.543Z,22.66
2019-04-20T09:08:42.255Z,23.14
2019-04-20T09:11:19.705Z,22.81
2019-04-20T09:13:43.462Z,23.01
2019-04-20T09:16:13.160Z,23.14
2019-04-20T09:18:54.744Z,22.97
2019-04-20T09:21:29.720Z,23.71
2019-04-20T09:24:22.870Z,23.84
2019-04-20T09:26:47.751Z,23.42
2019-04-20T09:29:16.014Z,23.49
2019-04-20T09:31:51.884Z,24.24
2019-04-20T09:34:43.693Z,24.41
2019-04-20T09:37:29.635Z,25.28
2019-04-20T09:40:25.578Z,24.12
2019-04-20T09:42:57.294Z,24.23
2019-04-20T09:45:40.965Z,24.10
2019-04-20T09:48:15.758Z,24.52
2019-04-20T09:51:04.768Z,24.81
2019-04-20T09:53:44.115Z,24.65
2019-04-20T09:56:38.592Z,24.83
2019-04-20T09:59:28.376Z,25.14
2019-04-20T10:02:44.578Z,26.15
2019-04-20T10:05:17.753Z,26.66
2019-04-20T10:07:55.970Z,25.36
2019-04-20T10:10:33.382Z,24.39
2019-04-20T10:13:00.552Z,24.94
2019-04-20T10:15:33.841Z,25.45
2019-04-20T10:18:07.887Z,26.15
2019-04-20T10:20:42.284Z,26.19
2019-04-20T10:23:16.447Z,26.82
2019-04-20T10:25:50.824Z,27.08
2019-04-20T10:28:23.873Z,26.71
2019-04-20T10:30:57.322Z,26.25
2019-04-20T10:33:31.430Z,24.98
2019-04-20T10:36:05.744Z,25.59
2019-04-20T10:38:38.698Z,26.11
2019-04-20T10:41:21.569Z,25.43
2019-04-20T10:43:46.970Z,24.38
2019-04-20T10:46:20.738Z,24.20
2019-04-20T10:48:56.108Z,24.28
2019-04-20T10:51:29.526Z,24.11
2019-04-20T10:54:02.586Z,24.61
2019-04-20T10:56:35.390Z,25.33
2019-04-20T10:59:09.680Z,24.43
2019-04-20T11:01:43.424Z,25.60
2019-04-20T11:04:16.737Z,25.53
2019-04-20T11:06:50.339Z,25.92
2019-04-20T11:09:24.768Z,25.13
2019-04-20T11:11:58.710Z,25.26
2019-04-20T11:14:36.362Z,25.22
2019-04-20T11:17:06.743Z,24.07
2019-04-20T11:19:39.232Z,25.07
2019-04-20T11:22:12.601Z,24.88
2019-04-20T11:24:48.157Z,24.09
2019-04-20T11:27:22.467Z,23.88
2019-04-20T11:29:56.059Z,24.74
2019-04-20T11:32:28.838Z,25.42
2019-04-20T11:35:11.066Z,25.11
2019-04-20T11:37:37.319Z,25.39
2019-04-20T11:40:10.985Z,25.37
2019-04-20T11:42:43.962Z,25.91
2019-04-20T11:45:18.341Z,25.03
2019-04-20T11:47:51.631Z,26.01
2019-04-20T11:50:25.271Z,25.73
2019-04-20T11:52:59.318Z,25.68
2019-04-20T11:55:32.245Z,25.15
2019-04-20T11:58:05.875Z,25.13
2019-04-20T12:00:55.287Z,26.31
2019-04-20T12:03:29.272Z,26.70
2019-04-20T12:05:59.748Z,26.39
2019-04-20T12:08:32.711Z,27.06
2019-04-20T12:11:21.376Z,26.34
2019-04-20T12:13:40.710Z,26.28
2019-04-20T12:16:13.944Z,26.22
2019-04-20T12:18:48.245Z,26.69
2019-04-20T12:21:21.304Z,25.39
2019-04-20T12:23:54.463Z,25.72
2019-04-20T12:26:28.964Z,25.83
2019-04-20T12:29:01.984Z,25.56
2019-04-20T12:31:35.649Z,25.91
2019-04-20T12:34:08.738Z,26.75
2019-04-20T12:36:42.810Z,25.87
2019-04-20T12:39:17.019Z,25.17
2019-04-20T12:41:56.101Z,25.54
2019-04-20T12:44:25.798Z,24.85
2019-04-20T12:46:59.638Z,25.18
2019-04-20T12:49:33.650Z,25.68
2019-04-20T12:52:08.298Z,25.63
2019-04-20T12:54:44.248Z,26.47
2019-04-20T12:57:16.624Z,26.44
2019-04-20T12:59:51.247Z,26.64
2019-04-20T13:02:25.137Z,26.06
2019-04-20T13:04:59.441Z,26.26
2019-04-20T13:07:41.612Z,25.93
2019-04-20T13:10:09.837Z,26.58
2019-04-20T13:13:10.303Z,26.74
2019-04-20T13:16:02.608Z,27.15
2019-04-20T13:18:41.227Z,27.27
2019-04-20T13:21:14.428Z,27.79
2019-04-20T13:23:47.121Z,27.81
2019-04-20T13:26:19.483Z,27.68
2019-04-20T13:28:52.908Z,26.89
2019-04-20T13:31:26.127Z,26.93
2019-04-20T13:33:59.270Z,27.18
2019-04-20T13:36:32.558Z,27.18
2019-04-20T13:39:08.231Z,27.41
2019-04-20T13:41:42.116Z,27.47
2019-04-20T13:44:15.762Z,28.20
2019-04-20T13:46:49.208Z,27.75
2019-04-20T13:49:22.939Z,27.78
2019-04-20T13:51:57.052Z,27.75
2019-04-20T13:54:30.014Z,27.99
2019-04-20T13:57:03.723Z,28.68
2019-04-20T13:59:41.931Z,28.17
2019-04-20T14:02:34.777Z,27.68
2019-04-20T14:05:08.899Z,27.49
2019-04-20T14:07:42.323Z,27.71
2019-04-20T14:10:15.708Z,27.08
2019-04-20T14:12:57.232Z,27.20
2019-04-20T14:15:23.258Z,26.88
2019-04-20T14:17:57.273Z,27.63
2019-04-20T14:20:30.254Z,27.54
2019-04-20T14:23:03.244Z,27.39
2019-04-20T14:25:36.749Z,27.50
2019-04-20T14:28:11.223Z,27.71
2019-04-20T14:30:44.219Z,27.93
2019-04-20T14:33:17.351Z,27.55
2019-04-20T14:35:50.650Z,26.49
2019-04-20T14:38:24.303Z,26.72
2019-04-20T14:40:58.143Z,27.16
2019-04-20T14:43:33.505Z,27.42
2019-04-20T14:46:06.325Z,27.87
2019-04-20T14:48:40.591Z,28.24
2019-04-20T14:51:14.598Z,27.88
2019-04-20T14:53:47.518Z,27.06
2019-04-20T14:56:20.497Z,26.56
2019-04-20T14:59:01.865Z,26.68
2019-04-20T15:01:44.836Z,25.94
2019-04-20T15:04:21.225Z,25.61
2019-04-20T15:06:52.667Z,26.05
2019-04-20T15:09:26.689Z,26.84
2019-04-20T15:12:00.947Z,26.48
2019-04-20T15:14:34.608Z,26.42
2019-04-20T15:17:08.949Z,26.06
2019-04-20T15:20:03.763Z,27.04
2019-04-20T15:22:35.910Z,26.32
2019-04-20T15:25:09.661Z,26.00
2019-04-20T15:27:46.075Z,27.30
2019-04-20T15:30:18.380Z,27.41
2019-04-20T15:32:52.444Z,28.16
2019-04-20T15:35:26.306Z,26.58
2019-04-20T15:38:00.481Z,27.14
2019-04-20T15:40:33.506Z,28.00
2019-04-20T15:43:12.445Z,27.47
2019-04-20T15:45:41.291Z,27.68
2019-04-20T15:48:14.364Z,27.17
2019-04-20T15:50:47.840Z,27.06
2019-04-20T15:53:23.890Z,26.40
2019-04-20T15:55:57.608Z,26.73
2019-04-20T15:58:30.529Z,26.74
2019-04-20T16:01:08.261Z,26.87
2019-04-20T16:03:47.651Z,26.67
2019-04-20T16:06:21.336Z,26.93
2019-04-20T16:08:56.566Z,27.47
2019-04-20T16:11:30.794Z,27.00
2019-04-20T16:14:05.380Z,27.00
2019-04-20T16:16:38.708Z,26.63
2019-04-20T16:19:25.826Z,26.30
2019-04-20T16:21:47.790Z,25.88
2019-04-20T16:24:22.527Z,25.69
2019-04-20T16:27:27.672Z,25.77
2019-04-20T16:30:01.839Z,25.57
2019-04-20T16:32:36.449Z,24.61
2019-04-20T16:35:10.916Z,24.34
2019-04-20T16:37:44.404Z,23.86
2019-04-20T16:40:17.785Z,23.19
2019-04-20T16:42:52.061Z,22.62
2019-04-20T16:45:25.320Z,22.48
2019-04-20T16:47:59.728Z,22.40
2019-04-20T16:50:33.118Z,22.03
2019-04-20T16:53:06.649Z,21.80
2019-04-20T16:55:40.935Z,21.48
2019-04-20T16:58:13.947Z,21.35
2019-04-20T17:00:47.673Z,21.11
2019-04-20T17:03:24.202Z,21.04
2019-04-20T17:05:55.931Z,20.82
2019-04-20T17:08:29.239Z,20.79
2019-04-20T17:11:03.375Z,20.61
2019-04-20T17:13:43.439Z,20.64
2019-04-20T17:16:10.853Z,20.52
2019-04-20T17:18:48.230Z,20.32
2019-04-20T17:21:25.255Z,19.95
2019-04-20T17:23:57.431Z,19.91
2019-04-20T17:26:45.251Z,19.76
2019-04-20T17:29:22.297Z,19.58
2019-04-20T17:32:15.811Z,19.51
2019-04-20T17:35:05.996Z,19.23
2019-04-20T17:37:24.624Z,18.77
2019-04-20T17:40:19.021Z,18.64
2019-04-20T17:42:46.173Z,18.40
2019-04-20T17:45:14.186Z,18.25
2019-04-20T17:47:59.607Z,18.08
2019-04-20T17:50:32.463Z,17.92
2019-04-20T17:53:06.126Z,17.89
2019-04-20T17:55:41.029Z,17.80
2019-04-20T17:58:12.104Z,17.42
2019-04-20T18:01:28.210Z,17.43
2019-04-20T18:04:24.511Z,17.03
2019-04-20T18:06:45.392Z,16.55
2019-04-20T18:09:33.224Z,16.31
2019-04-20T18:11:46.409Z,15.97
2019-04-20T18:14:31.430Z,15.85
2019-04-20T18:17:21.471Z,15.64
2019-04-20T18:19:57.037Z,15.44
2019-04-20T18:22:29.996Z,15.13
2019-04-20T18:25:25.776Z,15.11
2019-04-20T18:27:58.646Z,14.88
2019-04-20T18:30:36.327Z,14.77
2019-04-20T18:32:59.429Z,14.62
2019-04-20T18:35:34.831Z,14.33
2019-04-20T18:38:11.383Z,14.11
2019-04-20T18:40:52.633Z,13.95
2019-04-20T18:43:21.923Z,13.83
2019-04-20T18:46:08.061Z,13.61
2019-04-20T18:48:43.599Z,13.42
2019-04-20T18:50:59.710Z,13.31
2019-04-20T18:53:39.425Z,13.05
2019-04-20T18:56:08.136Z,12.88
2019-04-20T18:58:43.012Z,12.73
2019-04-20T19:01:17.059Z,12.67
2019-04-20T19:03:50.976Z,12.46
2019-04-20T19:06:25.618Z,12.39
2019-04-20T19:08:58.970Z,12.27
2019-04-20T19:11:37.540Z,12.16
2019-04-20T19:14:35.532Z,12.13
2019-04-20T19:17:29.056Z,12.12
2019-04-20T19:20:01.397Z,12.05
2019-04-20T19:22:35.485Z,11.80
2019-04-20T19:25:09.994Z,11.61
2019-04-20T19:27:48.572Z,11.63
2019-04-20T19:30:27.611Z,11.49
2019-04-20T19:33:09.101Z,11.36
2019-04-20T19:35:40.668Z,11.39
2019-04-20T19:38:10.503Z,11.48
2019-04-20T19:40:47.855Z,11.45
2019-04-20T19:43:20.588Z,11.37
2019-04-20T19:46:25.004Z,11.37
2019-04-20T19:48:32.111Z,11.29
2019-04-20T19:51:22.503Z,11.26
2019-04-20T19:53:50.714Z,11.23
2019-04-20T19:56:16.661Z,10.83
2019-04-20T19:58:54.205Z,11.01
2019-04-20T20:01:13.601Z,10.32
2019-04-20T20:03:48.290Z,10.46
2019-04-20T20:06:29.342Z,10.72
2019-04-20T20:09:03.084Z,10.69
2019-04-20T20:11:35.337Z,10.57
2019-04-20T20:14:09.782Z,10.86
2019-04-20T20:16:58.929Z,10.62
2019-04-20T20:19:32.498Z,10.61
2019-04-20T20:22:05.539Z,10.57
2019-04-20T20:24:29.146Z,10.65
2019-04-20T20:27:06.211Z,10.80
2019-04-20T20:29:45.256Z,10.48
2019-04-20T20:32:23.440Z,10.80
2019-04-20T20:34:57.152Z,10.60
2019-04-20T20:37:27.155Z,10.67
2019-04-20T20:40:07.776Z,10.75
2019-04-20T20:42:45.779Z,10.62
2019-04-20T20:45:15.766Z,10.71
2019-04-20T20:47:58.940Z,10.76
2019-04-20T20:50:39.446Z,10.81
2019-04-20T20:53:01.155Z,10.58
2019-04-20T20:55:32.207Z,10.48
2019-04-20T20:58:10.132Z,10.54
2019-04-20T21:00:46.093Z,10.87
2019-04-20T21:03:16.730Z,10.50
2019-04-20T21:05:43.639Z,10.88
2019-04-20T21:08:17.567Z,10.96
2019-04-20T21:10:51.058Z,11.12
2019-04-20T21:13:28.427Z,11.38
2019-04-20T21:16:03.953Z,11.34
2019-04-20T21:18:50.236Z,11.11
2019-04-20T21:21:21.914Z,11.30
2019-04-20T21:23:53.350Z,11.36
2019-04-20T21:26:26.010Z,11.89
2019-04-20T21:28:52.323Z,11.83
2019-04-20T21:31:27.876Z,12.12
2019-04-20T21:34:01.721Z,12.28
2019-04-20T21:36:34.897Z,12.45
2019-04-20T21:39:21.859Z,12.59
2019-04-20T21:41:51.295Z,13.12
2019-04-20T21:44:25.250Z,13.35
2019-04-20T21:46:55.027Z,13.59
2019-04-20T21:49:43.627Z,14.43
2019-04-20T21:52:10.641Z,14.49
2019-04-20T21:54:38.258Z,14.89
2019-04-20T21:57:13.229Z,14.47
2019-04-20T21:59:50.441Z,14.16
2019-04-20T22:02:26.407Z,14.75
2019-04-20T22:04:55.590Z,14.35
2019-04-20T22:07:28.814Z,13.73
2019-04-20T22:10:02.424Z,13.20
2019-04-20T22:12:45.435Z,12.59
2019-04-20T22:15:17.891Z,12.44
2019-04-20T22:17:44.774Z,12.16
2019-04-20T22:20:28.842Z,11.92
2019-04-20T22:23:04.507Z,11.85
2019-04-20T22:25:42.644Z,11.92
2019-04-20T22:28:02.383Z,11.86
2019-04-20T22:30:37.843Z,11.88
2019-04-20T22:33:43.194Z,11.42
2019-04-20T22:36:18.076Z,11.15
2019-04-20T22:39:11.859Z,11.04
2019-04-20T22:42:12.948Z,10.93
2019-04-20T22:44:47.983Z,10.79
2019-04-20T22:47:23.090Z,10.46
2019-04-20T22:50:15.129Z,10.58
2019-04-20T22:52:42.707Z,10.89
2019-04-20T22:55:27.843Z,11.06
2019-04-20T22:57:52.388Z,10.61
2019-04-20T23:00:21.793Z,10.64
2019-04-20T23:02:49.090Z,10.12
2019-04-20T23:05:22.785Z,9.78
2019-04-20T23:07:59.784Z,9.57
2019-04-20T23:10:38.674Z,9.40
2019-04-20T23:13:07.438Z,9.43
2019-04-20T23:15:43.337Z,9.41
2019-04-20T23:18:16.005Z,9.25
2019-04-20T23:20:50.081Z,9.19
2019-04-20T23:23:26.087Z,9.16
2019-04-20T23:25:58.872Z,9.27
2019-04-20T23:28:33.258Z,9.21
2019-04-20T23:31:11.912Z,9.14
2019-04-20T23:33:40.639Z,9.24
2019-04-20T23:36:14.646Z,9.14
2019-04-20T23:38:53.805Z,8.98
2019-04-20T23:41:23.730Z,8.89
2019-04-20T23:44:18.983Z,8.87
2019-04-20T23:47:13.581Z,8.88
2019-04-20T23:50:05.669Z,8.88
2019-04-20T23:52:49.674Z,8.77
2019-04-20T23:55:04.978Z,8.80
2019-04-20T23:57:33.838Z,8.78
